Time;durP1;ratioP1;P1;durP2;ratioP2;P2;SDS_P1;SDS_P2;PMS_P1;PMS_P2;Temp;Humidity;BMP_temperature;BMP_pressure;BME280_temperature;BME280_humidity;BME280_pressure;Samples;Min_cycle;Max_cycle;Signal;HPM_P1;HPM_P2
2022/03/14 00:00:49;;;;;;;33.47;13.77;;;;;;;-1.02;75.33;101521.69;4196500;28;20407;-71
2022/03/14 00:03:16;;;;;;;36.37;14.57;;;;;;;-0.98;74.96;101512.88;4203770;28;21785;-69
2022/03/14 00:05:43;;;;;;;38.10;15.47;;;;;;;-1.03;75.19;101522.59;4187719;28;21542;-72
2022/03/14 00:08:10;;;;;;;35.70;15.23;;;;;;;-1.00;75.21;101513.81;4197647;28;20225;-70
2022/03/14 00:10:36;;;;;;;35.80;14.03;;;;;;;-1.00;75.27;101513.81;4196128;28;20226;-70
2022/03/14 00:13:03;;;;;;;36.67;13.80;;;;;;;-0.98;74.77;101512.03;4192963;28;20324;-70
2022/03/14 00:15:31;;;;;;;33.13;14.00;;;;;;;-1.03;75.35;101520.00;4202408;28;20233;-69
2022/03/14 00:18:01;;;;;;;33.03;14.60;;;;;;;-1.08;75.53;101516.63;4191903;28;22203;-70
2022/03/14 00:20:28;;;;;;;36.10;14.70;;;;;;;-1.06;75.40;101514.84;4201975;28;20291;-70
2022/03/14 00:22:56;;;;;;;43.03;14.73;;;;;;;-1.04;75.34;101510.44;4217644;28;20233;-70
2022/03/14 00:25:23;;;;;;;37.97;13.80;;;;;;;-1.07;75.11;101519.22;4216445;28;20246;-70
2022/03/14 00:27:49;;;;;;;34.30;14.63;;;;;;;-1.12;75.69;101521.09;4199272;28;20229;-72
2022/03/14 00:30:22;;;;;;;32.63;13.70;;;;;;;-1.10;75.69;101510.59;4185344;28;20233;-70
2022/03/14 00:32:48;;;;;;;38.00;15.33;;;;;;;-1.09;75.55;101513.16;4196106;28;20247;-71
2022/03/14 00:35:15;;;;;;;36.20;14.50;;;;;;;-1.09;75.58;101520.16;4200422;28;20392;-68
2022/03/14 00:37:42;;;;;;;31.27;13.80;;;;;;;-1.09;75.61;101514.94;4184613;28;20240;-71
2022/03/14 00:40:10;;;;;;;33.13;13.60;;;;;;;-1.03;75.38;101525.22;4206493;28;20247;-72
2022/03/14 00:42:38;;;;;;;36.50;13.93;;;;;;;-1.06;75.58;101520.06;4211718;28;20638;-71
2022/03/14 00:45:05;;;;;;;36.13;14.27;;;;;;;-1.10;75.38;101518.44;4212429;28;20232;-71
2022/03/14 00:47:32;;;;;;;35.73;14.27;;;;;;;-1.08;75.67;101521.84;4198843;28;20511;-69
2022/03/14 00:49:59;;;;;;;37.67;14.03;;;;;;;-1.09;75.48;101530.59;4200945;28;20233;-70
2022/03/14 00:52:25;;;;;;;33.20;13.73;;;;;;;-1.10;75.11;101524.53;4198156;28;25461;-70
2022/03/14 00:54:52;;;;;;;29.40;13.27;;;;;;;-1.11;75.14;101511.50;4208982;28;20986;-70
2022/03/14 00:57:18;;;;;;;31.30;13.03;;;;;;;-1.12;75.38;101526.34;4205444;28;20560;-69
2022/03/14 00:59:45;;;;;;;32.40;13.30;;;;;;;-1.16;75.51;101521.25;4193768;28;22473;-71
2022/03/14 01:02:12;;;;;;;31.20;13.33;;;;;;;-1.13;75.10;101506.31;4209487;28;21547;-70
2022/03/14 01:04:38;;;;;;;38.87;13.43;;;;;;;-1.15;75.58;101515.09;4204059;28;20483;-69
2022/03/14 01:07:05;;;;;;;34.63;13.67;;;;;;;-1.12;75.49;101510.66;4194871;28;20224;-69
2022/03/14 01:09:32;;;;;;;34.30;13.60;;;;;;;-1.19;75.11;101514.34;4194532;28;20233;-70
2022/03/14 01:11:59;;;;;;;28.70;13.07;;;;;;;-1.18;75.21;101516.03;4207836;28;20233;-68
2022/03/14 01:14:26;;;;;;;34.63;13.53;;;;;;;-1.20;75.53;101523.06;4196919;28;20243;-70
2022/03/14 01:16:53;;;;;;;39.63;14.67;;;;;;;-1.24;75.96;101515.34;4215920;28;20386;-69
2022/03/14 01:19:20;;;;;;;33.00;13.73;;;;;;;-1.27;75.60;101519.75;4205676;28;20236;-69
2022/03/14 01:21:47;;;;;;;30.90;12.80;;;;;;;-1.26;75.88;101520.66;4197271;28;22372;-69
2022/03/14 01:24:14;;;;;;;35.40;13.77;;;;;;;-1.23;75.48;101522.31;4191197;28;20335;-69
2022/03/14 01:26:40;;;;;;;38.27;13.57;;;;;;;-1.27;75.88;101521.53;4191932;28;22320;-70
2022/03/14 01:29:07;;;;;;;31.97;12.83;;;;;;;-1.25;75.90;101518.88;4193051;28;20229;-70
2022/03/14 01:31:34;;;;;;;35.33;13.80;;;;;;;-1.23;75.85;101520.53;4205478;28;20275;-71
2022/03/14 01:34:01;;;;;;;35.10;13.70;;;;;;;-1.28;75.96;101527.66;4192181;28;20257;-70
2022/03/14 01:36:27;;;;;;;34.67;13.80;;;;;;;-1.27;75.93;101526.75;4189948;28;20479;-68
2022/03/14 01:38:55;;;;;;;35.40;13.50;;;;;;;-1.28;75.97;101515.44;4194222;28;20411;-67
2022/03/14 01:41:26;;;;;;;34.10;14.23;;;;;;;-1.30;75.57;101516.41;4198675;28;20237;-67
2022/03/14 01:43:53;;;;;;;32.10;13.67;;;;;;;-1.35;76.24;101508.69;4198389;28;20233;-71
2022/03/14 01:46:20;;;;;;;31.27;13.73;;;;;;;-1.37;76.09;101514.84;4197716;28;20232;-69
2022/03/14 01:48:47;;;;;;;32.23;13.90;;;;;;;-1.35;76.25;101518.28;4211389;28;20604;-68
2022/03/14 01:51:16;;;;;;;32.87;13.30;;;;;;;-1.38;76.78;101519.22;4192175;28;20226;-68
2022/03/14 01:53:42;;;;;;;33.60;13.90;;;;;;;-1.35;76.49;101518.28;4191566;28;20236;-68
2022/03/14 01:56:12;;;;;;;30.27;12.50;;;;;;;-1.33;76.18;101516.50;4224075;28;20303;-68
2022/03/14 01:58:40;;;;;;;35.37;13.50;;;;;;;-1.41;76.60;101524.50;4194161;28;21722;-68
2022/03/14 02:01:06;;;;;;;35.97;14.60;;;;;;;-1.39;76.56;101522.72;4186073;28;22041;-69
2022/03/14 02:03:33;;;;;;;34.40;13.83;;;;;;;-1.36;76.14;101525.28;4183238;28;21202;-68
2022/03/14 02:06:00;;;;;;;35.37;14.57;;;;;;;-1.42;76.54;101525.41;4194289;28;20688;-68
2022/03/14 02:08:26;;;;;;;33.67;13.60;;;;;;;-1.41;76.28;101527.13;4203622;28;20282;-69
2022/03/14 02:10:53;;;;;;;36.53;13.37;;;;;;;-1.36;76.53;101532.22;4195272;28;21534;-70
2022/03/14 02:13:19;;;;;;;32.77;14.40;;;;;;;-1.43;76.79;101536.75;4199370;28;20246;-70
2022/03/14 02:15:46;;;;;;;32.43;14.07;;;;;;;-1.40;76.61;101530.63;4196912;28;21509;-70
2022/03/14 02:18:13;;;;;;;32.43;13.97;;;;;;;-1.49;76.69;101531.72;4186649;28;22545;-68
2022/03/14 02:20:40;;;;;;;32.90;13.23;;;;;;;-1.39;76.39;101538.38;4191698;28;20276;-69
2022/03/14 02:23:06;;;;;;;34.23;14.07;;;;;;;-1.46;77.04;101529.00;4194000;28;22317;-68
2022/03/14 02:25:34;;;;;;;34.10;13.93;;;;;;;-1.54;77.33;101530.97;4197045;28;21544;-69
2022/03/14 02:28:01;;;;;;;35.33;14.00;;;;;;;-1.60;77.01;101536.34;4207859;28;22524;-68
2022/03/14 02:30:28;;;;;;;35.00;14.00;;;;;;;-1.58;77.41;101537.16;4198347;28;20278;-69
2022/03/14 02:32:55;;;;;;;35.47;14.13;;;;;;;-1.56;77.05;101536.22;4188212;28;20252;-68
2022/03/14 02:35:21;;;;;;;37.17;14.30;;;;;;;-1.54;77.07;101539.66;4196692;28;20263;-68
2022/03/14 02:37:48;;;;;;;34.93;14.03;;;;;;;-1.59;76.98;101540.66;4178205;28;20242;-67
2022/03/14 02:40:14;;;;;;;31.83;13.50;;;;;;;-1.57;77.36;101541.47;4181682;28;21397;-70
2022/03/14 02:42:41;;;;;;;37.43;13.90;;;;;;;-1.64;77.87;101555.59;4208433;28;20341;-70
2022/03/14 02:45:09;;;;;;;36.90;14.07;;;;;;;-1.65;77.45;101546.06;4198926;28;20564;-68
2022/03/14 02:47:36;;;;;;;32.33;14.03;;;;;;;-1.69;77.48;101545.25;4189510;28;20301;-67
2022/03/14 02:50:03;;;;;;;34.10;14.03;;;;;;;-1.72;77.67;101546.19;4198759;28;20303;-68
2022/03/14 02:52:30;;;;;;;35.10;14.07;;;;;;;-1.69;77.62;101545.25;4178900;28;20233;-68
2022/03/14 02:54:57;;;;;;;38.93;13.23;;;;;;;-1.68;78.12;101547.00;4196382;28;20871;-68
2022/03/14 02:57:24;;;;;;;32.93;13.47;;;;;;;-1.76;77.81;101544.56;4198485;28;20236;-68
2022/03/14 02:59:50;;;;;;;36.00;14.10;;;;;;;-1.77;78.33;101537.63;4204670;28;20228;-69
2022/03/14 03:02:18;;;;;;;37.07;14.17;;;;;;;-1.79;78.02;101539.44;4207078;28;21889;-73
2022/03/14 03:04:44;;;;;;;29.30;13.97;;;;;;;-1.80;78.15;101548.16;4188462;28;22809;-67
2022/03/14 03:07:11;;;;;;;33.23;13.50;;;;;;;-1.81;78.44;101546.44;4190072;28;20240;-70
2022/03/14 03:09:37;;;;;;;35.20;13.60;;;;;;;-1.83;78.43;101548.22;4193588;28;20233;-68
2022/03/14 03:12:13;;;;;;;34.87;13.23;;;;;;;-1.86;78.53;101548.31;4190077;28;21360;-67
2022/03/14 03:14:41;;;;;;;34.33;14.20;;;;;;;-1.86;78.40;101547.47;4206749;28;20623;-67
2022/03/14 03:17:08;;;;;;;34.10;13.17;;;;;;;-1.82;78.63;101562.16;4190184;28;20340;-68
2022/03/14 03:19:34;;;;;;;32.90;13.43;;;;;;;-1.85;78.32;101554.38;4185636;28;20316;-69
2022/03/14 03:22:01;;;;;;;31.40;13.50;;;;;;;-1.82;78.88;101555.16;4190546;28;21315;-70
2022/03/14 03:24:27;;;;;;;34.90;14.63;;;;;;;-1.83;78.23;101563.03;4199050;28;20235;-68
2022/03/14 03:26:54;;;;;;;32.93;14.03;;;;;;;-1.86;78.49;101566.56;4185855;28;20241;-69
2022/03/14 03:29:22;;;;;;;30.73;12.90;;;;;;;-1.85;78.70;101565.69;4210550;28;21457;-69
2022/03/14 03:31:49;;;;;;;34.07;13.20;;;;;;;-1.84;78.38;101569.16;4185369;28;20247;-69
2022/03/14 03:34:16;;;;;;;30.83;13.40;;;;;;;-1.82;78.30;101570.81;4194371;28;20240;-68
2022/03/14 03:36:43;;;;;;;31.40;12.70;;;;;;;-1.75;78.03;101577.59;4183883;28;21671;-69
2022/03/14 03:39:09;;;;;;;29.43;12.83;;;;;;;-1.86;78.06;101574.41;4191476;28;20234;-69
2022/03/14 03:41:38;;;;;;;32.10;12.97;;;;;;;-1.91;78.71;101571.03;4198238;28;20299;-69
2022/03/14 03:44:06;;;;;;;32.73;13.30;;;;;;;-1.88;78.27;101570.97;4196238;28;20294;-69
2022/03/14 03:46:33;;;;;;;30.63;13.63;;;;;;;-1.96;78.48;101572.91;4189103;28;22480;-69
2022/03/14 03:48:59;;;;;;;32.97;13.90;;;;;;;-2.02;79.11;101573.06;4188324;28;20268;-68
2022/03/14 03:51:26;;;;;;;34.67;14.40;;;;;;;-1.99;79.53;101573.84;4176356;28;20278;-69
2022/03/14 03:53:52;;;;;;;36.37;14.73;;;;;;;-2.00;78.92;101571.25;4218775;28;20456;-68
2022/03/14 03:56:19;;;;;;;33.93;13.37;;;;;;;-2.01;79.35;101577.38;4190292;28;20777;-70
2022/03/14 03:58:46;;;;;;;35.30;14.03;;;;;;;-2.00;79.39;101579.09;4181767;28;20232;-69
2022/03/14 04:01:21;;;;;;;34.00;14.43;;;;;;;-2.04;79.69;101582.66;4184281;28;20310;-69
2022/03/14 04:03:53;;;;;;;33.97;13.33;;;;;;;-2.04;79.72;101580.03;4188863;28;20671;-69
2022/03/14 04:06:28;;;;;;;38.50;14.57;;;;;;;-2.06;79.21;101579.22;4187053;28;21762;-72
2022/03/14 04:08:55;;;;;;;32.80;14.00;;;;;;;-2.05;79.27;101578.34;4183086;28;20239;-71
2022/03/14 04:11:22;;;;;;;39.67;15.20;;;;;;;-2.12;79.71;101578.47;4188564;28;20234;-68
2022/03/14 04:13:49;;;;;;;32.47;13.83;;;;;;;-2.16;79.87;101587.25;4195597;28;21251;-69
2022/03/14 04:16:17;;;;;;;32.53;13.80;;;;;;;-2.17;80.04;101589.94;4201053;28;20245;-68
2022/03/14 04:18:45;;;;;;;35.60;14.27;;;;;;;-2.11;80.05;101576.72;4187188;28;20278;-69
2022/03/14 04:21:13;;;;;;;39.13;15.23;;;;;;;-2.19;80.29;101582.13;4181284;28;20304;-68
2022/03/14 04:23:40;;;;;;;33.90;14.13;;;;;;;-2.23;80.92;101588.28;4188662;28;20281;-69
2022/03/14 04:26:06;;;;;;;34.50;13.60;;;;;;;-2.19;80.39;101584.72;4208008;28;20664;-68
2022/03/14 04:28:36;;;;;;;33.57;14.20;;;;;;;-2.27;80.77;101581.47;4181581;28;20283;-69
2022/03/14 04:31:03;;;;;;;34.00;14.30;;;;;;;-2.28;80.98;101577.13;4176976;28;21349;-68
2022/03/14 04:33:31;;;;;;;38.43;15.40;;;;;;;-2.27;80.88;101581.47;4183089;28;20245;-68
2022/03/14 04:35:57;;;;;;;42.53;14.77;;;;;;;-2.26;80.66;101579.69;4187109;28;20233;-69
2022/03/14 04:38:28;;;;;;;32.70;14.07;;;;;;;-2.26;80.92;101588.38;4187224;28;22607;-71
2022/03/14 04:40:55;;;;;;;36.03;13.90;;;;;;;-2.18;80.65;101591.69;4191084;28;20254;-69
2022/03/14 04:43:21;;;;;;;32.83;13.83;;;;;;;-2.17;80.55;101595.13;4198402;28;21438;-68
2022/03/14 04:45:48;;;;;;;36.57;14.10;;;;;;;-2.25;80.46;101597.91;4184248;28;20664;-68
2022/03/14 04:48:16;;;;;;;38.43;14.10;;;;;;;-2.30;81.46;101599.75;4182783;28;20397;-69
2022/03/14 04:50:42;;;;;;;44.33;15.47;;;;;;;-2.29;80.88;101605.84;4177501;28;20298;-70
2022/03/14 04:53:10;;;;;;;34.20;13.60;;;;;;;-2.31;81.08;101611.09;4189052;28;23150;-70
2022/03/14 04:55:36;;;;;;;35.13;14.53;;;;;;;-2.33;81.74;101602.44;4193605;28;20232;-70
2022/03/14 04:58:03;;;;;;;34.93;13.67;;;;;;;-2.35;81.23;101615.50;4183025;28;20224;-70
2022/03/14 05:00:30;;;;;;;37.90;15.13;;;;;;;-2.37;81.48;101614.66;4186955;28;20699;-70
2022/03/14 05:03:01;;;;;;;38.33;14.20;;;;;;;-2.30;81.33;101620.59;4213922;28;20414;-70
2022/03/14 05:05:30;;;;;;;35.67;14.90;;;;;;;-2.34;81.64;101619.84;4191634;28;20252;-73
2022/03/14 05:07:56;;;;;;;34.90;13.77;;;;;;;-2.27;80.97;101624.91;4208423;28;23597;-69
2022/03/14 05:10:23;;;;;;;41.50;14.33;;;;;;;-2.24;80.73;101622.25;4205561;28;20236;-70
2022/03/14 05:12:50;;;;;;;39.57;14.47;;;;;;;-2.28;81.03;101618.84;4220887;28;20233;-68
2022/03/14 05:15:17;;;;;;;38.00;14.73;;;;;;;-2.26;81.08;101622.25;4208232;28;21768;-70
2022/03/14 05:17:45;;;;;;;34.97;13.37;;;;;;;-2.21;80.74;101625.63;4229986;28;21786;-69
2022/03/14 05:20:12;;;;;;;47.77;14.70;;;;;;;-2.22;80.71;101623.91;4203008;28;20284;-70
2022/03/14 05:22:48;;;;;;;38.07;15.57;;;;;;;-2.16;80.60;101631.59;4190228;28;20249;-70
2022/03/14 05:25:22;;;;;;;35.77;14.13;;;;;;;-2.06;80.26;101618.34;4175715;28;22459;-70
2022/03/14 05:27:52;;;;;;;39.73;15.03;;;;;;;-2.18;80.48;101620.38;4172841;28;20316;-68
2022/03/14 05:30:18;;;;;;;35.93;14.40;;;;;;;-2.14;80.19;101626.34;4208358;28;21262;-71
2022/03/14 05:32:45;;;;;;;38.47;14.70;;;;;;;-2.14;80.71;101621.97;4205535;28;20299;-69
2022/03/14 05:35:12;;;;;;;40.00;14.33;;;;;;;-2.07;80.52;101634.91;4193038;28;22171;-71
2022/03/14 05:37:39;;;;;;;36.43;15.30;;;;;;;-2.08;80.04;101635.78;4168923;28;21041;-72
2022/03/14 05:40:07;;;;;;;39.97;14.77;;;;;;;-2.04;79.96;101645.25;4177039;28;20353;-70
2022/03/14 05:42:33;;;;;;;33.17;13.73;;;;;;;-1.97;79.81;101644.22;4183713;28;20235;-71
2022/03/14 05:45:00;;;;;;;39.20;15.37;;;;;;;-1.98;79.64;101652.94;4206404;28;21931;-69
2022/03/14 05:47:27;;;;;;;38.73;13.93;;;;;;;-1.90;79.43;101648.41;4193502;28;20225;-72
2022/03/14 05:49:53;;;;;;;41.03;15.23;;;;;;;-1.93;78.99;101648.47;4204000;28;20497;-71
2022/03/14 05:52:21;;;;;;;35.63;14.17;;;;;;;-1.90;78.80;101651.00;4181641;28;20302;-71
2022/03/14 05:54:48;;;;;;;33.43;14.33;;;;;;;-1.83;78.62;101647.34;4176993;28;21521;-69
2022/03/14 05:57:15;;;;;;;37.33;14.80;;;;;;;-1.75;78.02;101655.88;4192331;28;23296;-69
2022/03/14 05:59:42;;;;;;;35.27;14.17;;;;;;;-1.78;77.87;101648.13;4191748;28;21267;-68
2022/03/14 06:02:10;;;;;;;39.10;15.50;;;;;;;-1.78;78.03;101650.75;4168493;28;20251;-68
2022/03/14 06:04:39;;;;;;;36.63;15.10;;;;;;;-1.71;78.02;101649.69;4185620;28;20615;-68
2022/03/14 06:07:06;;;;;;;42.03;14.67;;;;;;;-1.67;77.68;101647.00;4186983;28;20284;-68
2022/03/14 06:09:33;;;;;;;37.07;14.40;;;;;;;-1.61;77.42;101642.50;4191726;28;20231;-69
2022/03/14 06:12:00;;;;;;;30.90;12.87;;;;;;;-1.56;76.85;101648.47;4177266;28;20304;-68
2022/03/14 06:14:26;;;;;;;32.43;13.40;;;;;;;-1.52;76.37;101650.09;4192432;28;20329;-68
2022/03/14 06:16:53;;;;;;;36.43;13.07;;;;;;;-1.46;76.54;101651.69;4180564;28;20757;-69
2022/03/14 06:19:19;;;;;;;35.37;13.97;;;;;;;-1.40;76.09;101651.56;4198108;28;20243;-67
2022/03/14 06:21:46;;;;;;;42.27;14.87;;;;;;;-1.39;75.42;101653.25;4190262;28;20715;-67
2022/03/14 06:24:13;;;;;;;39.30;13.63;;;;;;;-1.28;75.32;101653.00;4184736;28;20783;-66
2022/03/14 06:26:40;;;;;;;36.40;14.40;;;;;;;-1.21;74.91;101651.94;4201651;28;20244;-65
2022/03/14 06:29:07;;;;;;;34.53;13.67;;;;;;;-1.14;74.70;101657.88;4171736;28;22269;-68
2022/03/14 06:31:35;;;;;;;39.37;14.23;;;;;;;-1.14;74.26;101657.88;4190514;28;20461;-69
2022/03/14 06:34:02;;;;;;;34.87;14.47;;;;;;;-1.03;73.81;101657.56;4177555;28;21432;-68
2022/03/14 06:36:29;;;;;;;30.63;12.67;;;;;;;-0.98;73.88;101659.19;4191541;28;20410;-66
2022/03/14 06:38:59;;;;;;;37.00;14.60;;;;;;;-0.90;72.97;101662.44;4180895;28;21639;-68
2022/03/14 06:41:27;;;;;;;37.03;14.27;;;;;;;-0.83;73.47;101660.50;4176593;28;20744;-69
2022/03/14 06:43:56;;;;;;;38.20;14.07;;;;;;;-0.75;72.76;101660.28;4178767;28;20751;-69
2022/03/14 06:46:23;;;;;;;36.70;14.37;;;;;;;-0.61;71.95;101662.53;4186747;28;20234;-68
2022/03/14 06:48:49;;;;;;;30.87;13.20;;;;;;;-0.59;71.61;101655.50;4179267;28;25742;-68
2022/03/14 06:51:16;;;;;;;40.03;13.60;;;;;;;-0.55;71.63;101657.97;4177247;28;20236;-72
2022/03/14 06:53:43;;;;;;;42.27;13.60;;;;;;;-0.48;71.56;101664.75;4187503;28;20683;-68
2022/03/14 06:56:09;;;;;;;39.07;14.03;;;;;;;-0.43;70.74;101672.47;4182761;28;21138;-70
2022/03/14 06:58:36;;;;;;;37.63;14.77;;;;;;;-0.38;70.25;101665.34;4210493;28;20263;-68
2022/03/14 07:01:03;;;;;;;33.43;12.70;;;;;;;-0.31;69.91;101666.88;4190376;28;26104;-69
2022/03/14 07:03:29;;;;;;;27.93;12.40;;;;;;;-0.22;70.05;101665.75;4217713;28;21509;-78
2022/03/14 07:05:56;;;;;;;28.53;12.80;;;;;;;-0.07;69.23;101667.91;4196520;28;20236;-67
2022/03/14 07:08:23;;;;;;;31.13;12.40;;;;;;;0.10;68.66;101666.53;4190199;28;20225;-70
2022/03/14 07:10:50;;;;;;;31.20;12.93;;;;;;;0.15;67.89;101667.25;4191664;28;22094;-68
2022/03/14 07:13:16;;;;;;;43.20;13.77;;;;;;;0.16;68.02;101663.72;4184320;28;20234;-70
2022/03/14 07:15:43;;;;;;;37.17;13.50;;;;;;;0.20;67.44;101668.81;4207297;28;20236;-66
2022/03/14 07:18:11;;;;;;;32.77;13.40;;;;;;;0.32;66.87;101661.47;4199285;28;21610;-68
2022/03/14 07:20:38;;;;;;;32.43;13.83;;;;;;;0.40;66.42;101669.97;4208612;28;20225;-68
2022/03/14 07:23:06;;;;;;;33.17;12.97;;;;;;;0.50;66.66;101679.22;4205132;28;21861;-68
2022/03/14 07:25:36;;;;;;;42.00;14.27;;;;;;;0.75;65.60;101678.38;4191150;28;20277;-68
2022/03/14 07:28:05;;;;;;;35.23;14.03;;;;;;;0.92;64.50;101675.22;4205193;28;20659;-67
2022/03/14 07:30:31;;;;;;;32.47;14.00;;;;;;;1.40;63.26;101674.38;4222799;28;20245;-67
2022/03/14 07:32:58;;;;;;;38.67;13.40;;;;;;;2.39;59.59;101682.00;4209758;28;20245;-67
2022/03/14 07:35:26;;;;;;;35.73;13.33;;;;;;;2.46;59.00;101686.09;4215881;28;21037;-67
2022/03/14 07:37:53;;;;;;;34.60;13.17;;;;;;;4.67;52.15;101691.13;4263162;28;21786;-70
2022/03/14 07:40:19;;;;;;;34.17;13.17;;;;;;;7.01;44.11;101703.13;4207424;28;20248;-69
2022/03/14 07:42:52;;;;;;;34.43;12.93;;;;;;;8.17;40.37;101705.69;4196711;28;20241;-65
2022/03/14 07:45:21;;;;;;;31.47;13.30;;;;;;;10.51;34.28;101718.00;4216000;28;20613;-69
2022/03/14 07:47:52;;;;;;;33.63;12.60;;;;;;;11.53;32.36;101728.97;4186776;28;23007;-69
2022/03/14 07:50:19;;;;;;;33.90;13.03;;;;;;;12.41;30.29;101723.75;4193303;28;22842;-62
2022/03/14 07:52:47;;;;;;;33.57;13.33;;;;;;;13.22;28.37;101734.81;4195456;28;20726;-70
2022/03/14 07:55:15;;;;;;;32.10;13.37;;;;;;;12.86;29.18;101722.75;4221416;28;20234;-68
2022/03/14 07:57:42;;;;;;;32.27;13.43;;;;;;;13.03;28.74;101729.34;4205670;28;20224;-66
2022/03/14 08:00:11;;;;;;;33.90;14.20;;;;;;;13.98;26.65;101736.38;4209026;28;20228;-69
2022/03/14 08:02:38;;;;;;;33.13;13.80;;;;;;;15.17;25.07;101738.09;4197691;28;20302;-69
2022/03/14 08:05:06;;;;;;;29.40;13.90;;;;;;;13.96;26.09;101733.00;4191475;28;21355;-66
2022/03/14 08:07:34;;;;;;;32.33;13.77;;;;;;;14.68;25.36;101739.94;4174790;28;20276;-67
2022/03/14 08:10:02;;;;;;;28.87;14.07;;;;;;;13.47;26.96;101733.59;4197895;28;21248;-67
2022/03/14 08:12:29;;;;;;;36.87;14.87;;;;;;;12.58;27.74;101725.03;4202225;28;20287;-69
2022/03/14 08:14:55;;;;;;;32.13;14.50;;;;;;;11.75;29.14;101725.47;4208180;28;20314;-68
2022/03/14 08:17:22;;;;;;;31.27;13.80;;;;;;;13.54;27.77;101733.09;4203090;28;23859;-70
2022/03/14 08:19:49;;;;;;;29.23;14.63;;;;;;;13.59;26.76;101731.69;4235369;28;21775;-69
2022/03/14 08:22:15;;;;;;;41.83;14.80;;;;;;;13.24;26.84;101732.03;4199654;28;23001;-71
2022/03/14 08:24:42;;;;;;;40.27;15.23;;;;;;;13.57;26.82;101732.81;4190044;28;20250;-67
2022/03/14 08:27:09;;;;;;;37.30;13.90;;;;;;;13.79;26.22;101721.94;4201291;28;20361;-68
2022/03/14 08:29:36;;;;;;;29.70;13.77;;;;;;;13.74;26.29;101724.16;4203088;28;21499;-70
2022/03/14 08:32:03;;;;;;;35.57;15.37;;;;;;;15.10;24.26;101740.53;4243518;28;20427;-68
2022/03/14 08:34:29;;;;;;;35.93;14.70;;;;;;;14.01;25.70;101728.09;4193353;28;20506;-60
2022/03/14 08:36:56;;;;;;;31.67;14.73;;;;;;;13.83;26.08;101722.50;4198829;28;20303;-66
2022/03/14 08:39:23;;;;;;;31.37;14.63;;;;;;;15.51;24.01;101743.84;4183239;28;22456;-72
2022/03/14 08:41:49;;;;;;;30.80;14.50;;;;;;;14.27;25.25;101731.97;4186271;28;20228;-71
2022/03/14 08:44:16;;;;;;;29.27;14.70;;;;;;;14.50;24.94;101737.09;4189650;28;21845;-69
2022/03/14 08:46:43;;;;;;;30.47;14.60;;;;;;;14.84;24.39;101732.19;4204618;28;23653;-69
2022/03/14 08:49:09;;;;;;;30.23;15.13;;;;;;;15.00;24.69;101723.59;4201754;28;20313;-69
2022/03/14 08:51:37;;;;;;;30.47;14.60;;;;;;;13.16;26.53;101721.13;4210495;28;20236;-69
2022/03/14 08:54:04;;;;;;;36.77;15.53;;;;;;;12.16;28.37;101721.38;4224147;28;20247;-69
2022/03/14 08:56:30;;;;;;;33.67;15.80;;;;;;;10.67;30.54;101706.22;4184209;28;20498;-70
2022/03/14 08:58:57;;;;;;;35.30;15.03;;;;;;;10.42;31.96;101702.72;4233334;28;24452;-69
2022/03/14 09:01:24;;;;;;;38.17;15.50;;;;;;;9.47;33.50;101698.84;4221242;28;21868;-73
2022/03/14 09:03:51;;;;;;;34.67;16.53;;;;;;;8.96;35.12;101699.63;4198728;28;20252;-67
2022/03/14 09:06:18;;;;;;;29.73;15.53;;;;;;;9.08;34.10;101695.28;4212448;28;25759;-67
2022/03/14 09:08:45;;;;;;;34.90;16.40;;;;;;;9.26;34.88;101690.53;4220015;28;20250;-69
2022/03/14 09:11:11;;;;;;;45.83;16.13;;;;;;;9.10;35.02;101688.06;4194058;28;20233;-68
2022/03/14 09:13:38;;;;;;;37.03;15.90;;;;;;;8.14;35.74;101682.03;4208029;28;20232;-67
2022/03/14 09:16:08;;;;;;;33.93;15.93;;;;;;;7.13;38.46;101684.72;4206128;28;20279;-66
2022/03/14 09:18:36;;;;;;;34.50;15.90;;;;;;;6.88;39.11;101674.75;4200516;28;20396;-66
2022/03/14 09:21:02;;;;;;;37.63;15.63;;;;;;;6.83;39.76;101671.50;4214796;28;20266;-67
2022/03/14 09:23:30;;;;;;;35.70;15.57;;;;;;;7.07;39.64;101670.97;4210132;28;20413;-66
2022/03/14 09:25:57;;;;;;;37.27;16.50;;;;;;;7.19;38.59;101665.81;4232301;28;20477;-68
2022/03/14 09:28:25;;;;;;;38.27;17.00;;;;;;;7.04;39.00;101671.16;4210315;28;20251;-67
2022/03/14 09:30:52;;;;;;;32.17;15.70;;;;;;;6.83;40.31;101668.84;4207377;28;20244;-66
2022/03/14 09:33:20;;;;;;;48.47;16.87;;;;;;;7.24;39.63;101678.78;4200418;28;20229;-67
2022/03/14 09:35:46;;;;;;;45.13;17.43;;;;;;;7.59;37.92;101663.38;4222631;28;20524;-67
2022/03/14 09:38:17;;;;;;;33.50;16.70;;;;;;;7.14;39.09;101670.53;4221913;28;21591;-67
2022/03/14 09:40:45;;;;;;;39.03;16.63;;;;;;;7.25;38.58;101658.44;4186315;28;20506;-67
2022/03/14 09:43:16;;;;;;;37.37;16.77;;;;;;;7.63;38.45;101664.00;4205643;28;21774;-68
2022/03/14 09:45:46;;;;;;;35.37;16.13;;;;;;;7.90;37.37;101663.25;4225723;28;20234;-65
2022/03/14 09:48:15;;;;;;;36.97;16.30;;;;;;;7.78;37.97;101648.97;4208465;28;20373;-67
2022/03/14 09:50:44;;;;;;;45.37;17.27;;;;;;;7.07;38.51;101655.97;4203819;28;20246;-66
2022/03/14 09:53:13;;;;;;;37.50;16.43;;;;;;;6.92;39.77;101657.72;4199042;28;23192;-67
2022/03/14 09:55:46;;;;;;;36.63;16.27;;;;;;;7.09;38.74;101659.34;4178505;28;20221;-66
2022/03/14 09:58:14;;;;;;;37.90;17.23;;;;;;;6.90;38.92;101653.47;4189300;28;20227;-66
2022/03/14 10:00:42;;;;;;;52.67;18.10;;;;;;;7.07;39.57;101658.63;4187994;28;20242;-67
2022/03/14 10:03:16;;;;;;;47.40;17.37;;;;;;;6.86;39.42;101649.28;4195578;28;26181;-71
2022/03/14 10:05:44;;;;;;;37.47;16.90;;;;;;;6.93;39.68;101647.97;4193556;28;20300;-66
2022/03/14 10:08:11;;;;;;;33.97;16.43;;;;;;;7.19;38.93;101652.59;4165891;28;22392;-68
2022/03/14 10:10:39;;;;;;;37.73;16.80;;;;;;;7.12;38.82;101651.25;4186305;28;22291;-69
2022/03/14 10:13:22;;;;;;;34.83;16.30;;;;;;;7.08;39.49;101652.38;4218262;28;20241;-68
2022/03/14 10:15:49;;;;;;;38.10;16.77;;;;;;;7.15;38.90;101653.69;4199012;28;20230;-69
2022/03/14 10:18:17;;;;;;;34.97;16.67;;;;;;;7.19;38.55;101652.59;4190867;28;20678;-69
2022/03/14 10:20:58;;;;;;;34.63;16.50;;;;;;;7.49;38.57;101661.38;4180302;28;20286;-67
2022/03/14 10:23:43;;;;;;;37.23;16.67;;;;;;;7.65;37.88;101658.63;4206214;28;25335;-68
2022/03/14 10:26:12;;;;;;;36.07;16.73;;;;;;;7.51;38.47;101647.09;4195841;28;22828;-68
2022/03/14 10:28:38;;;;;;;37.73;17.87;;;;;;;7.32;38.55;101642.06;4203144;28;20236;-67
2022/03/14 10:32:01;;;;;;;37.30;16.17;;;;;;;7.33;38.61;101645.59;4184752;28;20273;-68
2022/03/14 10:34:28;;;;;;;40.53;15.10;;;;;;;7.71;37.92;101637.91;4214608;28;20294;-67
2022/03/14 10:36:57;;;;;;;31.53;15.13;;;;;;;7.86;36.54;101638.72;4188431;28;20324;-68
2022/03/14 10:39:31;;;;;;;35.10;16.50;;;;;;;7.88;36.87;101642.13;4200051;28;22913;-67
2022/03/14 10:42:06;;;;;;;38.77;16.27;;;;;;;7.61;37.86;101642.09;4214624;28;20228;-67
2022/03/14 10:44:49;;;;;;;35.67;16.07;;;;;;;7.35;37.56;101641.03;4193346;28;20729;-69
2022/03/14 10:47:16;;;;;;;32.17;15.63;;;;;;;7.41;37.67;101645.97;4192886;28;22538;-68
2022/03/14 10:49:43;;;;;;;36.77;16.37;;;;;;;7.69;37.21;101636.31;4202973;28;20256;-68
2022/03/14 10:52:13;;;;;;;35.57;16.90;;;;;;;7.66;37.50;101639.16;4220573;28;20271;-69
2022/03/14 10:54:42;;;;;;;35.33;16.27;;;;;;;7.78;37.39;101646.31;4193210;28;20264;-66
2022/03/14 10:57:31;;;;;;;36.03;15.87;;;;;;;8.17;36.38;101642.03;4203817;28;20754;-67
2022/03/14 10:59:58;;;;;;;38.00;16.80;;;;;;;8.38;36.02;101642.44;4206012;28;20284;-68
2022/03/14 11:02:26;;;;;;;37.87;16.30;;;;;;;8.27;36.10;101631.72;4184039;28;22520;-68
2022/03/14 11:04:53;;;;;;;36.60;16.47;;;;;;;8.40;35.42;101625.50;4209106;28;22126;-67
2022/03/14 11:07:23;;;;;;;33.50;14.67;;;;;;;8.44;35.17;101634.97;4213579;28;20232;-68
2022/03/14 11:09:52;;;;;;;31.67;16.47;;;;;;;8.54;35.24;101631.72;4185906;28;21400;-68
2022/03/14 11:12:23;;;;;;;36.27;16.60;;;;;;;8.40;35.31;101625.50;4202910;28;20263;-68
2022/03/14 11:15:01;;;;;;;33.00;15.60;;;;;;;8.49;35.60;101615.25;4217192;28;20383;-68